Ana Sayfa
METAR-TAF:

METAR-TAF

Havaalanları :

Bingöl Havalimanı

Bingöl, Türkiye

Enlem: 38-51-40N, Boylam: 40-35-33E, yükseklik: 1063 m

Güncel hava durumu gözlemi

Rapor saat 12:50 UTC de 3 saat ve 28 dakika önce yapıldı.
Rüzgar güneybatıdan 9 kt
Sıcaklık 33°C
Nem 19%
Basınç 1014 hPa
Görüş mesafesi 10 km veya daha fazla
3500 ft yükseklikte parçalı bulutlu

METAR: LTCU 241250Z 23009KT 9999 SCT035 33/06 Q1014

Saat: 19:18 (16:18 UTC)

Tahmin

Rapor saat 13:40 UTC de 2 saat ve 38 dakika önce yapıldı.
Ayın 24'si saat 15 UTC'den ayın 24'si saat 24 UTC'ye kadar geçerli Tahmin
Rüzgar batı/güneybatıdan 9 kt
Görüş mesafesi 10 km veya daha fazla
3500 ft yükseklikte az bulutlu
Dönüşüyor
ayın 24'si saat 16 UTC'den ayın 24'si saat 18 UTC'ye kadar
Görüş mesafesi 10 km veya daha fazla
1500 m altında bulut yok ve kümülonimbus yok

TAF: LTCU 241340Z 2415/2424 24009KT 9999 FEW035 BECMG 2416/2418 CAVOK

4.000'den fazla havaalanı için hava durumu gözlemleri ve tahminleri (METAR ve TAF raporları).

Kullanılabilir istasyonlar harita üzerinde sarı ve kırmızı noktalarla gösterilir.

İstasyonun adını görmek için fareyi noktanın üzerinde gezdirin.

Sonrasında hava gözlem ve tahminlerini görmek için tıklayın.

Haritayı değiştirmek için: yaklaştırmak için siyah artı işaretli yeşil düğmeye ve uzaklaştırmak için de eksi işaretli düğmeye hızla tıklayın; bitişik haritalar için yeşil okları kullanın.


METAR-TAF: